Terminal Aerodrome Forecast
Issued by NWS

Home | Current Version | Previous Version | Text Only | Print | Product List | Glossary On
Versions: 1 2 3 4 5 6 7 8 9 10 11 12 13 14 15 16 17 18 19 20
000
FTUS41 KCAR 191120
TAFHUL
TAF
KHUL 191120Z 1912/2012 20004KT P6SM BKN060
     FM192100 36006KT P6SM VCSH OVC025
     FM200000 01006KT 5SM -RA BR OVC018
     FM200300 02007KT 2SM -SN BR OVC008=

USA.gov is the U.S. government's official web portal to all federal, state and local government web resources and services.